sensor_id;sensor_type;location;lat;lon;timestamp;P1;durP1;ratioP1;P2;durP2;ratioP2
60653;SDS011;46476;53.614;10.048;2022-10-16T00:01:56;3.55;;;2.80;;
60653;SDS011;46476;53.614;10.048;2022-10-16T00:05:51;6.45;;;3.20;;
60653;SDS011;46476;53.614;10.048;2022-10-16T00:09:39;3.33;;;2.75;;
60653;SDS011;46476;53.614;10.048;2022-10-16T00:16:30;3.58;;;2.30;;
60653;SDS011;46476;53.614;10.048;2022-10-16T00:19:49;4.65;;;2.83;;
60653;SDS011;46476;53.614;10.048;2022-10-16T00:23:16;3.85;;;2.65;;
60653;SDS011;46476;53.614;10.048;2022-10-16T00:29:38;4.05;;;2.45;;
60653;SDS011;46476;53.614;10.048;2022-10-16T00:35:57;3.60;;;1.83;;
60653;SDS011;46476;53.614;10.048;2022-10-16T00:42:32;3.78;;;2.03;;
60653;SDS011;46476;53.614;10.048;2022-10-16T00:45:20;4.22;;;1.60;;
60653;SDS011;46476;53.614;10.048;2022-10-16T00:47:47;4.95;;;2.00;;
60653;SDS011;46476;53.614;10.048;2022-10-16T00:50:28;2.85;;;1.38;;
60653;SDS011;46476;53.614;10.048;2022-10-16T00:53:06;4.95;;;1.20;;
60653;SDS011;46476;53.614;10.048;2022-10-16T00:55:55;5.13;;;1.77;;
60653;SDS011;46476;53.614;10.048;2022-10-16T00:58:29;3.42;;;1.50;;
60653;SDS011;46476;53.614;10.048;2022-10-16T01:00:55;3.75;;;1.20;;
60653;SDS011;46476;53.614;10.048;2022-10-16T01:03:32;4.45;;;1.25;;
60653;SDS011;46476;53.614;10.048;2022-10-16T01:06:50;4.38;;;1.05;;
60653;SDS011;46476;53.614;10.048;2022-10-16T01:12:15;1.90;;;1.02;;
60653;SDS011;46476;53.614;10.048;2022-10-16T01:17:33;2.65;;;1.08;;
60653;SDS011;46476;53.614;10.048;2022-10-16T01:29:50;2.03;;;0.88;;
60653;SDS011;46476;53.614;10.048;2022-10-16T01:32:23;2.45;;;0.80;;
60653;SDS011;46476;53.614;10.048;2022-10-16T01:35:26;3.58;;;1.20;;
60653;SDS011;46476;53.614;10.048;2022-10-16T01:40:39;2.35;;;0.90;;
60653;SDS011;46476;53.614;10.048;2022-10-16T01:46:43;1.48;;;0.93;;
60653;SDS011;46476;53.614;10.048;2022-10-16T01:49:32;3.38;;;0.98;;
60653;SDS011;46476;53.614;10.048;2022-10-16T01:52:02;3.38;;;1.17;;
60653;SDS011;46476;53.614;10.048;2022-10-16T01:54:42;1.88;;;1.00;;
60653;SDS011;46476;53.614;10.048;2022-10-16T01:57:50;2.70;;;0.85;;
60653;SDS011;46476;53.614;10.048;2022-10-16T02:00:43;1.00;;;0.90;;
60653;SDS011;46476;53.614;10.048;2022-10-16T02:03:46;2.22;;;0.90;;
60653;SDS011;46476;53.614;10.048;2022-10-16T02:09:14;1.55;;;0.75;;
60653;SDS011;46476;53.614;10.048;2022-10-16T02:11:59;2.60;;;0.88;;
60653;SDS011;46476;53.614;10.048;2022-10-16T02:17:23;1.83;;;0.90;;
60653;SDS011;46476;53.614;10.048;2022-10-16T02:20:32;1.95;;;0.80;;
60653;SDS011;46476;53.614;10.048;2022-10-16T02:24:19;2.85;;;0.80;;
60653;SDS011;46476;53.614;10.048;2022-10-16T02:26:52;3.10;;;1.27;;
60653;SDS011;46476;53.614;10.048;2022-10-16T02:32:05;3.20;;;1.10;;
60653;SDS011;46476;53.614;10.048;2022-10-16T02:34:53;1.55;;;0.80;;
60653;SDS011;46476;53.614;10.048;2022-10-16T02:38:22;3.15;;;0.90;;
60653;SDS011;46476;53.614;10.048;2022-10-16T02:41:38;1.50;;;0.80;;
60653;SDS011;46476;53.614;10.048;2022-10-16T02:45:09;2.65;;;1.08;;
60653;SDS011;46476;53.614;10.048;2022-10-16T02:47:38;1.38;;;0.60;;
60653;SDS011;46476;53.614;10.048;2022-10-16T02:50:07;2.83;;;0.85;;
60653;SDS011;46476;53.614;10.048;2022-10-16T02:52:45;2.95;;;0.90;;
60653;SDS011;46476;53.614;10.048;2022-10-16T02:55:36;4.00;;;0.95;;
60653;SDS011;46476;53.614;10.048;2022-10-16T02:58:06;3.80;;;0.80;;
60653;SDS011;46476;53.614;10.048;2022-10-16T03:00:40;2.00;;;0.80;;
60653;SDS011;46476;53.614;10.048;2022-10-16T03:03:14;1.67;;;0.90;;
60653;SDS011;46476;53.614;10.048;2022-10-16T03:06:02;2.88;;;0.90;;
60653;SDS011;46476;53.614;10.048;2022-10-16T03:09:05;1.83;;;0.80;;
60653;SDS011;46476;53.614;10.048;2022-10-16T03:11:38;1.63;;;0.77;;
60653;SDS011;46476;53.614;10.048;2022-10-16T03:14:46;2.20;;;0.80;;
60653;SDS011;46476;53.614;10.048;2022-10-16T03:20:48;1.10;;;0.60;;
60653;SDS011;46476;53.614;10.048;2022-10-16T03:24:37;2.03;;;0.80;;
60653;SDS011;46476;53.614;10.048;2022-10-16T03:27:06;1.40;;;0.63;;
60653;SDS011;46476;53.614;10.048;2022-10-16T03:29:49;2.05;;;0.68;;
60653;SDS011;46476;53.614;10.048;2022-10-16T03:32:33;2.85;;;1.00;;
60653;SDS011;46476;53.614;10.048;2022-10-16T03:35:27;3.08;;;0.90;;
60653;SDS011;46476;53.614;10.048;2022-10-16T03:38:18;2.83;;;1.48;;
60653;SDS011;46476;53.614;10.048;2022-10-16T03:40:45;1.17;;;0.85;;
60653;SDS011;46476;53.614;10.048;2022-10-16T03:43:14;2.30;;;0.70;;
60653;SDS011;46476;53.614;10.048;2022-10-16T03:45:50;5.03;;;1.60;;
60653;SDS011;46476;53.614;10.048;2022-10-16T03:49:13;4.85;;;1.20;;
60653;SDS011;46476;53.614;10.048;2022-10-16T03:51:39;2.92;;;1.13;;
60653;SDS011;46476;53.614;10.048;2022-10-16T03:54:07;1.95;;;0.80;;
60653;SDS011;46476;53.614;10.048;2022-10-16T03:56:38;1.85;;;0.80;;
60653;SDS011;46476;53.614;10.048;2022-10-16T03:59:06;2.30;;;0.73;;
60653;SDS011;46476;53.614;10.048;2022-10-16T04:01:31;2.15;;;0.65;;
60653;SDS011;46476;53.614;10.048;2022-10-16T04:03:59;2.47;;;1.00;;
60653;SDS011;46476;53.614;10.048;2022-10-16T04:06:24;0.88;;;0.45;;
60653;SDS011;46476;53.614;10.048;2022-10-16T04:08:50;1.85;;;0.80;;
60653;SDS011;46476;53.614;10.048;2022-10-16T04:11:15;2.60;;;1.00;;
60653;SDS011;46476;53.614;10.048;2022-10-16T04:13:41;1.00;;;0.70;;
60653;SDS011;46476;53.614;10.048;2022-10-16T04:16:08;2.05;;;0.73;;
60653;SDS011;46476;53.614;10.048;2022-10-16T04:18:41;1.75;;;0.80;;
60653;SDS011;46476;53.614;10.048;2022-10-16T04:21:09;2.97;;;0.70;;
60653;SDS011;46476;53.614;10.048;2022-10-16T04:23:58;2.92;;;0.77;;
60653;SDS011;46476;53.614;10.048;2022-10-16T04:26:57;1.83;;;0.77;;
60653;SDS011;46476;53.614;10.048;2022-10-16T04:29:44;4.35;;;0.80;;
60653;SDS011;46476;53.614;10.048;2022-10-16T04:32:12;1.63;;;0.85;;
60653;SDS011;46476;53.614;10.048;2022-10-16T04:34:40;2.75;;;0.90;;
60653;SDS011;46476;53.614;10.048;2022-10-16T04:37:07;2.90;;;0.80;;
60653;SDS011;46476;53.614;10.048;2022-10-16T04:39:44;1.92;;;0.73;;
60653;SDS011;46476;53.614;10.048;2022-10-16T04:42:10;2.50;;;0.80;;
60653;SDS011;46476;53.614;10.048;2022-10-16T04:44:41;1.63;;;0.75;;
60653;SDS011;46476;53.614;10.048;2022-10-16T04:47:07;2.38;;;1.10;;
60653;SDS011;46476;53.614;10.048;2022-10-16T04:49:37;2.97;;;0.98;;
60653;SDS011;46476;53.614;10.048;2022-10-16T04:52:04;1.30;;;0.73;;
60653;SDS011;46476;53.614;10.048;2022-10-16T04:54:29;3.17;;;0.90;;
60653;SDS011;46476;53.614;10.048;2022-10-16T04:56:55;2.60;;;1.17;;
60653;SDS011;46476;53.614;10.048;2022-10-16T04:59:26;2.45;;;1.00;;
60653;SDS011;46476;53.614;10.048;2022-10-16T05:01:55;1.17;;;0.77;;
60653;SDS011;46476;53.614;10.048;2022-10-16T05:04:41;2.45;;;0.90;;
60653;SDS011;46476;53.614;10.048;2022-10-16T05:07:11;2.28;;;1.00;;
60653;SDS011;46476;53.614;10.048;2022-10-16T05:09:36;3.08;;;1.00;;
60653;SDS011;46476;53.614;10.048;2022-10-16T05:12:05;3.13;;;0.80;;
60653;SDS011;46476;53.614;10.048;2022-10-16T05:14:33;2.45;;;0.98;;
60653;SDS011;46476;53.614;10.048;2022-10-16T05:16:59;4.10;;;1.35;;
60653;SDS011;46476;53.614;10.048;2022-10-16T05:19:26;2.45;;;0.75;;
60653;SDS011;46476;53.614;10.048;2022-10-16T05:22:07;2.55;;;1.38;;
60653;SDS011;46476;53.614;10.048;2022-10-16T05:24:39;2.78;;;1.30;;
60653;SDS011;46476;53.614;10.048;2022-10-16T05:27:10;1.98;;;0.90;;
60653;SDS011;46476;53.614;10.048;2022-10-16T05:29:36;2.50;;;1.10;;
60653;SDS011;46476;53.614;10.048;2022-10-16T05:32:01;1.60;;;1.00;;
60653;SDS011;46476;53.614;10.048;2022-10-16T05:34:27;2.53;;;1.13;;
60653;SDS011;46476;53.614;10.048;2022-10-16T05:36:52;2.22;;;1.17;;
60653;SDS011;46476;53.614;10.048;2022-10-16T05:39:18;1.65;;;1.15;;
60653;SDS011;46476;53.614;10.048;2022-10-16T05:41:43;2.63;;;1.20;;
60653;SDS011;46476;53.614;10.048;2022-10-16T05:44:09;3.40;;;1.13;;
60653;SDS011;46476;53.614;10.048;2022-10-16T05:46:35;5.03;;;1.35;;
60653;SDS011;46476;53.614;10.048;2022-10-16T05:49:07;3.45;;;1.10;;
60653;SDS011;46476;53.614;10.048;2022-10-16T05:54:07;2.30;;;1.13;;
60653;SDS011;46476;53.614;10.048;2022-10-16T05:56:33;3.78;;;1.05;;
60653;SDS011;46476;53.614;10.048;2022-10-16T05:58:58;3.53;;;1.30;;
60653;SDS011;46476;53.614;10.048;2022-10-16T06:01:24;3.38;;;1.17;;
60653;SDS011;46476;53.614;10.048;2022-10-16T06:03:52;4.60;;;1.00;;
60653;SDS011;46476;53.614;10.048;2022-10-16T06:06:19;2.35;;;1.23;;
60653;SDS011;46476;53.614;10.048;2022-10-16T06:08:46;1.90;;;0.80;;
60653;SDS011;46476;53.614;10.048;2022-10-16T06:11:17;2.53;;;1.13;;
60653;SDS011;46476;53.614;10.048;2022-10-16T06:13:44;1.38;;;1.00;;
60653;SDS011;46476;53.614;10.048;2022-10-16T06:16:11;3.50;;;1.00;;
60653;SDS011;46476;53.614;10.048;2022-10-16T06:18:37;3.28;;;0.98;;
60653;SDS011;46476;53.614;10.048;2022-10-16T06:21:07;2.00;;;0.93;;
60653;SDS011;46476;53.614;10.048;2022-10-16T06:23:34;1.25;;;0.95;;
60653;SDS011;46476;53.614;10.048;2022-10-16T06:26:07;3.80;;;1.08;;
60653;SDS011;46476;53.614;10.048;2022-10-16T06:28:33;2.22;;;0.85;;
60653;SDS011;46476;53.614;10.048;2022-10-16T06:30:59;1.30;;;0.80;;
60653;SDS011;46476;53.614;10.048;2022-10-16T06:33:25;2.80;;;1.10;;
60653;SDS011;46476;53.614;10.048;2022-10-16T06:35:50;2.45;;;1.00;;
60653;SDS011;46476;53.614;10.048;2022-10-16T06:38:16;1.90;;;0.88;;
60653;SDS011;46476;53.614;10.048;2022-10-16T06:40:41;2.75;;;1.10;;
60653;SDS011;46476;53.614;10.048;2022-10-16T06:43:06;2.47;;;1.00;;
60653;SDS011;46476;53.614;10.048;2022-10-16T06:45:32;3.55;;;1.10;;
60653;SDS011;46476;53.614;10.048;2022-10-16T06:47:57;3.80;;;1.10;;
60653;SDS011;46476;53.614;10.048;2022-10-16T06:50:22;2.58;;;1.05;;
60653;SDS011;46476;53.614;10.048;2022-10-16T06:52:48;5.05;;;1.00;;
60653;SDS011;46476;53.614;10.048;2022-10-16T06:55:14;2.75;;;1.00;;
60653;SDS011;46476;53.614;10.048;2022-10-16T06:57:40;3.00;;;1.30;;
60653;SDS011;46476;53.614;10.048;2022-10-16T07:00:05;5.03;;;1.30;;
60653;SDS011;46476;53.614;10.048;2022-10-16T07:02:31;3.28;;;1.00;;
60653;SDS011;46476;53.614;10.048;2022-10-16T07:04:56;3.28;;;0.90;;
60653;SDS011;46476;53.614;10.048;2022-10-16T07:07:22;2.25;;;1.20;;
60653;SDS011;46476;53.614;10.048;2022-10-16T07:09:49;2.72;;;1.15;;
60653;SDS011;46476;53.614;10.048;2022-10-16T07:12:15;3.80;;;1.30;;
60653;SDS011;46476;53.614;10.048;2022-10-16T07:14:40;2.53;;;1.00;;
60653;SDS011;46476;53.614;10.048;2022-10-16T07:17:05;1.90;;;1.10;;
60653;SDS011;46476;53.614;10.048;2022-10-16T07:19:30;1.70;;;1.30;;
60653;SDS011;46476;53.614;10.048;2022-10-16T07:21:56;2.92;;;1.30;;
60653;SDS011;46476;53.614;10.048;2022-10-16T07:24:22;3.80;;;1.27;;
60653;SDS011;46476;53.614;10.048;2022-10-16T07:26:47;2.22;;;1.20;;
60653;SDS011;46476;53.614;10.048;2022-10-16T07:29:13;3.05;;;1.13;;
60653;SDS011;46476;53.614;10.048;2022-10-16T07:31:44;1.75;;;1.13;;
60653;SDS011;46476;53.614;10.048;2022-10-16T07:34:10;2.35;;;1.33;;
60653;SDS011;46476;53.614;10.048;2022-10-16T07:36:37;3.17;;;1.50;;
60653;SDS011;46476;53.614;10.048;2022-10-16T07:39:03;2.08;;;1.15;;
60653;SDS011;46476;53.614;10.048;2022-10-16T07:41:28;4.03;;;1.20;;
60653;SDS011;46476;53.614;10.048;2022-10-16T07:43:54;2.45;;;1.10;;
60653;SDS011;46476;53.614;10.048;2022-10-16T07:46:24;2.17;;;1.20;;
60653;SDS011;46476;53.614;10.048;2022-10-16T07:48:51;3.13;;;1.27;;
60653;SDS011;46476;53.614;10.048;2022-10-16T07:51:20;4.13;;;1.35;;
60653;SDS011;46476;53.614;10.048;2022-10-16T07:53:48;2.05;;;0.90;;
60653;SDS011;46476;53.614;10.048;2022-10-16T07:56:14;2.20;;;1.23;;
60653;SDS011;46476;53.614;10.048;2022-10-16T07:58:41;2.55;;;1.23;;
60653;SDS011;46476;53.614;10.048;2022-10-16T08:01:08;2.28;;;1.08;;
60653;SDS011;46476;53.614;10.048;2022-10-16T08:03:36;2.08;;;1.20;;
60653;SDS011;46476;53.614;10.048;2022-10-16T08:06:02;3.25;;;1.13;;
60653;SDS011;46476;53.614;10.048;2022-10-16T08:08:28;1.95;;;1.20;;
60653;SDS011;46476;53.614;10.048;2022-10-16T08:10:55;1.88;;;1.30;;
60653;SDS011;46476;53.614;10.048;2022-10-16T08:13:21;2.95;;;1.05;;
60653;SDS011;46476;53.614;10.048;2022-10-16T08:15:46;2.45;;;1.02;;
60653;SDS011;46476;53.614;10.048;2022-10-16T08:18:12;1.60;;;1.02;;
60653;SDS011;46476;53.614;10.048;2022-10-16T08:20:40;2.45;;;1.20;;
60653;SDS011;46476;53.614;10.048;2022-10-16T08:23:08;2.83;;;1.20;;
60653;SDS011;46476;53.614;10.048;2022-10-16T08:25:35;4.03;;;1.15;;
60653;SDS011;46476;53.614;10.048;2022-10-16T08:28:03;2.17;;;1.25;;
60653;SDS011;46476;53.614;10.048;2022-10-16T08:30:29;4.18;;;1.52;;
60653;SDS011;46476;53.614;10.048;2022-10-16T08:32:55;3.00;;;1.67;;
60653;SDS011;46476;53.614;10.048;2022-10-16T08:35:20;3.13;;;1.65;;
60653;SDS011;46476;53.614;10.048;2022-10-16T08:37:45;2.58;;;1.20;;
60653;SDS011;46476;53.614;10.048;2022-10-16T08:40:18;3.17;;;1.40;;
60653;SDS011;46476;53.614;10.048;2022-10-16T08:48:33;2.08;;;1.25;;
60653;SDS011;46476;53.614;10.048;2022-10-16T08:54:08;5.32;;;1.10;;
60653;SDS011;46476;53.614;10.048;2022-10-16T08:56:46;2.97;;;1.13;;
60653;SDS011;46476;53.614;10.048;2022-10-16T08:59:11;2.90;;;0.85;;
60653;SDS011;46476;53.614;10.048;2022-10-16T09:01:49;2.85;;;1.23;;
60653;SDS011;46476;53.614;10.048;2022-10-16T09:07:25;2.25;;;0.93;;
60653;SDS011;46476;53.614;10.048;2022-10-16T09:12:37;2.92;;;1.60;;
60653;SDS011;46476;53.614;10.048;2022-10-16T09:18:06;2.65;;;1.00;;
60653;SDS011;46476;53.614;10.048;2022-10-16T09:20:45;2.22;;;1.02;;
60653;SDS011;46476;53.614;10.048;2022-10-16T09:25:59;3.47;;;0.90;;
60653;SDS011;46476;53.614;10.048;2022-10-16T09:28:24;1.92;;;1.08;;
60653;SDS011;46476;53.614;10.048;2022-10-16T09:30:50;1.52;;;0.95;;
60653;SDS011;46476;53.614;10.048;2022-10-16T09:33:16;3.42;;;0.95;;
60653;SDS011;46476;53.614;10.048;2022-10-16T09:35:49;2.15;;;0.88;;
60653;SDS011;46476;53.614;10.048;2022-10-16T09:38:35;2.17;;;1.40;;
60653;SDS011;46476;53.614;10.048;2022-10-16T09:41:14;3.15;;;1.33;;
60653;SDS011;46476;53.614;10.048;2022-10-16T09:46:21;2.85;;;1.33;;
60653;SDS011;46476;53.614;10.048;2022-10-16T09:48:50;2.55;;;1.02;;
60653;SDS011;46476;53.614;10.048;2022-10-16T09:51:20;2.33;;;1.08;;
60653;SDS011;46476;53.614;10.048;2022-10-16T09:54:02;2.33;;;1.10;;
60653;SDS011;46476;53.614;10.048;2022-10-16T09:56:38;1.85;;;0.77;;
60653;SDS011;46476;53.614;10.048;2022-10-16T09:59:14;3.78;;;0.70;;
60653;SDS011;46476;53.614;10.048;2022-10-16T10:04:15;3.03;;;0.98;;
60653;SDS011;46476;53.614;10.048;2022-10-16T10:06:45;2.17;;;0.70;;
60653;SDS011;46476;53.614;10.048;2022-10-16T10:09:23;2.60;;;0.73;;
60653;SDS011;46476;53.614;10.048;2022-10-16T10:11:51;2.40;;;0.70;;
60653;SDS011;46476;53.614;10.048;2022-10-16T10:19:37;2.78;;;0.98;;
60653;SDS011;46476;53.614;10.048;2022-10-16T10:33:20;3.83;;;0.80;;
60653;SDS011;46476;53.614;10.048;2022-10-16T10:47:22;1.88;;;0.60;;
60653;SDS011;46476;53.614;10.048;2022-10-16T10:50:22;4.03;;;1.00;;
60653;SDS011;46476;53.614;10.048;2022-10-16T10:55:49;3.22;;;0.55;;
60653;SDS011;46476;53.614;10.048;2022-10-16T11:00:59;1.80;;;0.60;;
60653;SDS011;46476;53.614;10.048;2022-10-16T11:06:15;2.97;;;0.60;;
60653;SDS011;46476;53.614;10.048;2022-10-16T11:08:55;2.25;;;0.60;;
60653;SDS011;46476;53.614;10.048;2022-10-16T11:11:40;1.15;;;0.50;;
60653;SDS011;46476;53.614;10.048;2022-10-16T11:16:47;3.17;;;0.50;;
60653;SDS011;46476;53.614;10.048;2022-10-16T11:28:10;1.17;;;0.50;;
60653;SDS011;46476;53.614;10.048;2022-10-16T11:30:24;1.38;;;0.50;;
60653;SDS011;46476;53.614;10.048;2022-10-16T11:38:20;2.28;;;0.60;;
60653;SDS011;46476;53.614;10.048;2022-10-16T11:41:27;3.35;;;0.50;;
60653;SDS011;46476;53.614;10.048;2022-10-16T11:43:58;3.60;;;0.60;;
60653;SDS011;46476;53.614;10.048;2022-10-16T11:46:48;1.65;;;0.50;;
60653;SDS011;46476;53.614;10.048;2022-10-16T11:49:24;3.20;;;0.50;;
60653;SDS011;46476;53.614;10.048;2022-10-16T11:51:55;2.80;;;0.50;;
60653;SDS011;46476;53.614;10.048;2022-10-16T11:57:09;1.98;;;0.40;;
60653;SDS011;46476;53.614;10.048;2022-10-16T11:59:46;1.30;;;0.40;;
60653;SDS011;46476;53.614;10.048;2022-10-16T12:10:31;1.35;;;0.60;;
60653;SDS011;46476;53.614;10.048;2022-10-16T12:12:59;1.27;;;0.60;;
60653;SDS011;46476;53.614;10.048;2022-10-16T12:15:28;1.42;;;0.45;;
60653;SDS011;46476;53.614;10.048;2022-10-16T12:17:56;2.30;;;0.90;;
60653;SDS011;46476;53.614;10.048;2022-10-16T12:20:23;3.40;;;0.88;;
60653;SDS011;46476;53.614;10.048;2022-10-16T12:25:22;2.53;;;0.60;;
60653;SDS011;46476;53.614;10.048;2022-10-16T12:30:29;2.53;;;0.77;;
60653;SDS011;46476;53.614;10.048;2022-10-16T12:32:57;2.63;;;0.70;;
60653;SDS011;46476;53.614;10.048;2022-10-16T12:35:27;6.18;;;1.30;;
60653;SDS011;46476;53.614;10.048;2022-10-16T12:38:04;1.33;;;0.40;;
60653;SDS011;46476;53.614;10.048;2022-10-16T12:40:32;2.65;;;0.52;;
60653;SDS011;46476;53.614;10.048;2022-10-16T12:43:10;3.00;;;0.52;;
60653;SDS011;46476;53.614;10.048;2022-10-16T12:48:48;3.15;;;0.90;;
60653;SDS011;46476;53.614;10.048;2022-10-16T12:51:33;2.80;;;0.60;;
60653;SDS011;46476;53.614;10.048;2022-10-16T13:02:43;3.35;;;0.70;;
60653;SDS011;46476;53.614;10.048;2022-10-16T13:16:46;1.88;;;0.88;;
60653;SDS011;46476;53.614;10.048;2022-10-16T13:19:29;4.57;;;0.90;;
60653;SDS011;46476;53.614;10.048;2022-10-16T13:30:22;2.72;;;0.60;;
60653;SDS011;46476;53.614;10.048;2022-10-16T13:32:58;2.30;;;0.60;;
60653;SDS011;46476;53.614;10.048;2022-10-16T13:35:46;3.35;;;1.00;;
60653;SDS011;46476;53.614;10.048;2022-10-16T13:38:17;1.00;;;0.50;;
60653;SDS011;46476;53.614;10.048;2022-10-16T13:40:54;1.92;;;0.60;;
60653;SDS011;46476;53.614;10.048;2022-10-16T13:43:29;2.53;;;0.60;;
60653;SDS011;46476;53.614;10.048;2022-10-16T13:46:05;3.58;;;0.80;;
60653;SDS011;46476;53.614;10.048;2022-10-16T13:48:36;2.67;;;0.70;;
60653;SDS011;46476;53.614;10.048;2022-10-16T13:51:20;4.30;;;0.68;;
60653;SDS011;46476;53.614;10.048;2022-10-16T13:53:45;2.95;;;0.70;;
60653;SDS011;46476;53.614;10.048;2022-10-16T13:56:12;2.95;;;0.98;;
60653;SDS011;46476;53.614;10.048;2022-10-16T13:58:39;1.58;;;0.70;;
60653;SDS011;46476;53.614;10.048;2022-10-16T14:01:16;4.55;;;0.75;;
60653;SDS011;46476;53.614;10.048;2022-10-16T14:03:44;6.88;;;1.00;;
60653;SDS011;46476;53.614;10.048;2022-10-16T14:06:12;2.05;;;0.55;;
60653;SDS011;46476;53.614;10.048;2022-10-16T14:08:44;2.67;;;0.65;;
60653;SDS011;46476;53.614;10.048;2022-10-16T14:11:19;2.78;;;0.70;;
60653;SDS011;46476;53.614;10.048;2022-10-16T14:13:47;2.28;;;0.50;;
60653;SDS011;46476;53.614;10.048;2022-10-16T14:16:17;2.58;;;0.50;;
60653;SDS011;46476;53.614;10.048;2022-10-16T14:18:46;2.95;;;0.70;;
60653;SDS011;46476;53.614;10.048;2022-10-16T14:21:20;3.03;;;0.50;;
60653;SDS011;46476;53.614;10.048;2022-10-16T14:23:45;2.65;;;0.40;;
60653;SDS011;46476;53.614;10.048;2022-10-16T14:28:38;2.75;;;0.75;;
60653;SDS011;46476;53.614;10.048;2022-10-16T14:33:44;1.42;;;0.45;;
60653;SDS011;46476;53.614;10.048;2022-10-16T14:38:37;3.60;;;0.60;;
60653;SDS011;46476;53.614;10.048;2022-10-16T14:41:04;1.38;;;0.43;;
60653;SDS011;46476;53.614;10.048;2022-10-16T14:43:36;2.03;;;0.60;;
60653;SDS011;46476;53.614;10.048;2022-10-16T14:46:06;2.28;;;0.80;;
60653;SDS011;46476;53.614;10.048;2022-10-16T14:48:39;4.38;;;0.73;;
60653;SDS011;46476;53.614;10.048;2022-10-16T14:51:14;2.60;;;0.73;;
60653;SDS011;46476;53.614;10.048;2022-10-16T14:53:40;2.53;;;0.82;;
60653;SDS011;46476;53.614;10.048;2022-10-16T14:56:07;1.23;;;0.73;;
60653;SDS011;46476;53.614;10.048;2022-10-16T14:58:33;1.92;;;0.50;;
60653;SDS011;46476;53.614;10.048;2022-10-16T15:01:00;2.08;;;0.60;;
60653;SDS011;46476;53.614;10.048;2022-10-16T15:03:25;3.90;;;0.95;;
60653;SDS011;46476;53.614;10.048;2022-10-16T15:05:50;4.80;;;1.08;;
60653;SDS011;46476;53.614;10.048;2022-10-16T15:08:15;2.88;;;1.15;;
60653;SDS011;46476;53.614;10.048;2022-10-16T15:10:42;4.53;;;1.23;;
60653;SDS011;46476;53.614;10.048;2022-10-16T15:13:12;2.83;;;0.90;;
60653;SDS011;46476;53.614;10.048;2022-10-16T15:15:45;1.98;;;0.90;;
60653;SDS011;46476;53.614;10.048;2022-10-16T15:18:12;3.05;;;0.65;;
60653;SDS011;46476;53.614;10.048;2022-10-16T15:20:40;2.47;;;0.60;;
60653;SDS011;46476;53.614;10.048;2022-10-16T15:23:08;2.58;;;0.50;;
60653;SDS011;46476;53.614;10.048;2022-10-16T15:25:41;3.58;;;0.63;;
60653;SDS011;46476;53.614;10.048;2022-10-16T15:28:09;1.88;;;0.50;;
60653;SDS011;46476;53.614;10.048;2022-10-16T15:30:35;1.92;;;0.52;;
60653;SDS011;46476;53.614;10.048;2022-10-16T15:33:02;1.50;;;0.50;;
60653;SDS011;46476;53.614;10.048;2022-10-16T15:35:28;2.65;;;0.57;;
60653;SDS011;46476;53.614;10.048;2022-10-16T15:37:53;3.80;;;0.70;;
60653;SDS011;46476;53.614;10.048;2022-10-16T15:40:19;3.10;;;0.60;;
60653;SDS011;46476;53.614;10.048;2022-10-16T15:42:45;4.55;;;0.70;;
60653;SDS011;46476;53.614;10.048;2022-10-16T15:45:11;3.35;;;1.45;;
60653;SDS011;46476;53.614;10.048;2022-10-16T15:47:37;3.10;;;0.90;;
60653;SDS011;46476;53.614;10.048;2022-10-16T15:50:03;2.05;;;0.60;;
60653;SDS011;46476;53.614;10.048;2022-10-16T15:52:29;3.45;;;0.80;;
60653;SDS011;46476;53.614;10.048;2022-10-16T15:54:56;2.65;;;0.60;;
60653;SDS011;46476;53.614;10.048;2022-10-16T15:57:22;3.15;;;0.75;;
60653;SDS011;46476;53.614;10.048;2022-10-16T15:59:48;2.45;;;0.60;;
60653;SDS011;46476;53.614;10.048;2022-10-16T16:02:14;3.13;;;0.80;;
60653;SDS011;46476;53.614;10.048;2022-10-16T16:04:39;1.88;;;0.60;;
60653;SDS011;46476;53.614;10.048;2022-10-16T16:07:04;2.45;;;0.73;;
60653;SDS011;46476;53.614;10.048;2022-10-16T16:09:32;1.40;;;0.60;;
60653;SDS011;46476;53.614;10.048;2022-10-16T16:11:58;2.33;;;0.60;;
60653;SDS011;46476;53.614;10.048;2022-10-16T16:15:18;3.17;;;0.70;;
60653;SDS011;46476;53.614;10.048;2022-10-16T16:17:52;3.22;;;1.15;;
60653;SDS011;46476;53.614;10.048;2022-10-16T16:23:08;4.47;;;0.80;;
60653;SDS011;46476;53.614;10.048;2022-10-16T16:29:11;1.58;;;0.60;;
60653;SDS011;46476;53.614;10.048;2022-10-16T16:31:42;3.03;;;0.70;;
60653;SDS011;46476;53.614;10.048;2022-10-16T16:34:08;2.47;;;0.73;;
60653;SDS011;46476;53.614;10.048;2022-10-16T16:36:37;3.45;;;0.70;;
60653;SDS011;46476;53.614;10.048;2022-10-16T16:39:35;4.53;;;0.80;;
60653;SDS011;46476;53.614;10.048;2022-10-16T16:43:12;3.47;;;1.15;;
60653;SDS011;46476;53.614;10.048;2022-10-16T16:45:38;3.95;;;1.20;;
60653;SDS011;46476;53.614;10.048;2022-10-16T16:48:06;2.53;;;0.90;;
60653;SDS011;46476;53.614;10.048;2022-10-16T16:50:36;5.35;;;1.85;;
60653;SDS011;46476;53.614;10.048;2022-10-16T16:53:03;3.50;;;1.17;;
60653;SDS011;46476;53.614;10.048;2022-10-16T16:55:29;3.75;;;0.93;;
60653;SDS011;46476;53.614;10.048;2022-10-16T16:57:54;3.25;;;1.10;;
60653;SDS011;46476;53.614;10.048;2022-10-16T17:00:22;3.25;;;0.93;;
60653;SDS011;46476;53.614;10.048;2022-10-16T17:02:49;3.00;;;0.93;;
60653;SDS011;46476;53.614;10.048;2022-10-16T17:05:33;3.72;;;1.08;;
60653;SDS011;46476;53.614;10.048;2022-10-16T17:08:19;4.85;;;1.33;;
60653;SDS011;46476;53.614;10.048;2022-10-16T17:14:38;4.30;;;1.30;;
60653;SDS011;46476;53.614;10.048;2022-10-16T17:17:06;6.05;;;1.20;;
60653;SDS011;46476;53.614;10.048;2022-10-16T17:20:09;4.22;;;1.85;;
60653;SDS011;46476;53.614;10.048;2022-10-16T17:22:36;6.63;;;2.25;;
60653;SDS011;46476;53.614;10.048;2022-10-16T17:25:06;5.22;;;2.10;;
60653;SDS011;46476;53.614;10.048;2022-10-16T17:27:35;7.00;;;1.90;;
60653;SDS011;46476;53.614;10.048;2022-10-16T17:30:00;5.55;;;1.65;;
60653;SDS011;46476;53.614;10.048;2022-10-16T17:32:26;9.35;;;1.83;;
60653;SDS011;46476;53.614;10.048;2022-10-16T17:34:52;9.35;;;2.80;;
60653;SDS011;46476;53.614;10.048;2022-10-16T17:37:28;4.13;;;1.50;;
60653;SDS011;46476;53.614;10.048;2022-10-16T17:40:23;5.05;;;1.50;;
60653;SDS011;46476;53.614;10.048;2022-10-16T17:42:51;4.20;;;1.58;;
60653;SDS011;46476;53.614;10.048;2022-10-16T17:45:16;5.45;;;1.90;;
60653;SDS011;46476;53.614;10.048;2022-10-16T17:47:41;6.55;;;2.30;;
60653;SDS011;46476;53.614;10.048;2022-10-16T17:50:28;8.30;;;2.05;;
60653;SDS011;46476;53.614;10.048;2022-10-16T17:53:12;3.97;;;1.85;;
60653;SDS011;46476;53.614;10.048;2022-10-16T17:56:10;4.03;;;1.55;;
60653;SDS011;46476;53.614;10.048;2022-10-16T17:58:41;3.60;;;1.50;;
60653;SDS011;46476;53.614;10.048;2022-10-16T18:01:13;4.82;;;1.70;;
60653;SDS011;46476;53.614;10.048;2022-10-16T18:04:07;4.70;;;1.55;;
60653;SDS011;46476;53.614;10.048;2022-10-16T18:06:40;4.63;;;1.52;;
60653;SDS011;46476;53.614;10.048;2022-10-16T18:09:07;5.70;;;1.80;;
60653;SDS011;46476;53.614;10.048;2022-10-16T18:11:38;3.00;;;1.40;;
60653;SDS011;46476;53.614;10.048;2022-10-16T18:14:15;3.47;;;1.52;;
60653;SDS011;46476;53.614;10.048;2022-10-16T18:16:42;4.38;;;1.80;;
60653;SDS011;46476;53.614;10.048;2022-10-16T18:19:22;6.68;;;2.67;;
60653;SDS011;46476;53.614;10.048;2022-10-16T18:22:04;6.28;;;2.30;;
60653;SDS011;46476;53.614;10.048;2022-10-16T18:24:30;5.32;;;1.83;;
60653;SDS011;46476;53.614;10.048;2022-10-16T18:27:01;5.03;;;2.00;;
60653;SDS011;46476;53.614;10.048;2022-10-16T18:29:37;6.60;;;2.53;;